NWWW METAR and TAF weather

Enter ICAO airport designator
Station Type Date Time Source
NWWW METAR 2020/02/27 14:00 UTC NOAA

NWWW 271400Z AUTO 05005KT 9999 ///CB 25/19 Q1009 BECMG SCT055


Station Type Date Time Source
NWWW Decoded METAR 2020/02/27 14:00 UTC NOAA

La Tontouta Nlle-Caledonie , New Caledonia (NWWW) 22-01S 166-13E 14M
Feb 27, 2020 - 09:00 AM EST / 2020.02.27 1400 UTC
Wind: from the NE (050 degrees) at 6 MPH (5 KT):0
Visibility: greater than 7 mile(s):0
Weather: Cumulonimbus clouds observed
Temperature: 77 F (25 C)
Dew Point: 66 F (19 C)
Relative Humidity: 69%
Pressure (altimeter): 29.80 in. Hg (1009 hPa)
ob: NWWW 271400Z AUTO 05005KT 9999 ///CB 25/19 Q1009 BECMG SCT055
cycle: 14

Station Type Date Time Source
NWWW TAF 2020/02/27 12:30 UTC NOAA

TAF NWWW 271100Z 2712/2812 05004KT 9999 SCT055
BECMG 2722/2724 20010KT
TEMPO 2801/2806 4000 SHRA FEW030TCU BKN035

Example: see airport list